sensor_id;sensor_type;location;lat;lon;timestamp;temperature;humidity
4697;DHT22;2362;50.780;0.292;2023-07-22T00:01:24;15.50;99.90
4697;DHT22;2362;50.780;0.292;2023-07-22T00:03:50;15.50;99.90
4697;DHT22;2362;50.780;0.292;2023-07-22T00:06:15;15.40;99.90
4697;DHT22;2362;50.780;0.292;2023-07-22T00:08:41;15.30;99.90
4697;DHT22;2362;50.780;0.292;2023-07-22T00:11:07;15.30;99.90
4697;DHT22;2362;50.780;0.292;2023-07-22T00:13:34;15.20;99.90
4697;DHT22;2362;50.780;0.292;2023-07-22T00:16:00;15.20;99.90
4697;DHT22;2362;50.780;0.292;2023-07-22T00:18:28;15.10;99.90
4697;DHT22;2362;50.780;0.292;2023-07-22T00:20:54;15.10;99.90
4697;DHT22;2362;50.780;0.292;2023-07-22T00:23:20;15.10;99.90
4697;DHT22;2362;50.780;0.292;2023-07-22T00:25:46;15.10;99.90
4697;DHT22;2362;50.780;0.292;2023-07-22T00:28:12;15.10;99.90
4697;DHT22;2362;50.780;0.292;2023-07-22T00:30:38;15.00;99.90
4697;DHT22;2362;50.780;0.292;2023-07-22T00:33:04;14.90;99.90
4697;DHT22;2362;50.780;0.292;2023-07-22T00:35:31;14.90;99.90
4697;DHT22;2362;50.780;0.292;2023-07-22T00:37:57;14.90;99.90
4697;DHT22;2362;50.780;0.292;2023-07-22T00:40:23;14.80;99.90
4697;DHT22;2362;50.780;0.292;2023-07-22T00:42:49;14.80;99.90
4697;DHT22;2362;50.780;0.292;2023-07-22T00:45:15;14.80;99.90
4697;DHT22;2362;50.780;0.292;2023-07-22T00:47:40;14.70;99.90
4697;DHT22;2362;50.780;0.292;2023-07-22T00:50:07;14.70;99.90
4697;DHT22;2362;50.780;0.292;2023-07-22T00:52:34;14.70;99.90
4697;DHT22;2362;50.780;0.292;2023-07-22T00:55:00;14.70;99.90
4697;DHT22;2362;50.780;0.292;2023-07-22T00:57:26;14.60;99.90
4697;DHT22;2362;50.780;0.292;2023-07-22T00:59:51;14.60;99.90
4697;DHT22;2362;50.780;0.292;2023-07-22T01:02:21;14.50;99.90
4697;DHT22;2362;50.780;0.292;2023-07-22T01:04:47;14.60;99.90
4697;DHT22;2362;50.780;0.292;2023-07-22T01:07:14;14.60;99.90
4697;DHT22;2362;50.780;0.292;2023-07-22T01:09:42;14.60;99.90
4697;DHT22;2362;50.780;0.292;2023-07-22T01:12:09;14.60;99.90
4697;DHT22;2362;50.780;0.292;2023-07-22T01:14:36;14.60;99.90
4697;DHT22;2362;50.780;0.292;2023-07-22T01:17:03;14.60;99.90
4697;DHT22;2362;50.780;0.292;2023-07-22T01:19:29;14.60;99.90
4697;DHT22;2362;50.780;0.292;2023-07-22T01:22:00;14.60;99.90
4697;DHT22;2362;50.780;0.292;2023-07-22T01:24:28;14.50;99.90
4697;DHT22;2362;50.780;0.292;2023-07-22T01:26:54;14.50;99.90
4697;DHT22;2362;50.780;0.292;2023-07-22T01:29:22;14.50;99.90
4697;DHT22;2362;50.780;0.292;2023-07-22T01:31:50;14.50;99.90
4697;DHT22;2362;50.780;0.292;2023-07-22T01:34:16;14.50;99.90
4697;DHT22;2362;50.780;0.292;2023-07-22T01:36:43;14.50;99.90
4697;DHT22;2362;50.780;0.292;2023-07-22T01:39:09;14.50;99.90
4697;DHT22;2362;50.780;0.292;2023-07-22T01:41:36;14.50;99.90
4697;DHT22;2362;50.780;0.292;2023-07-22T01:44:02;14.40;99.90
4697;DHT22;2362;50.780;0.292;2023-07-22T01:46:28;14.40;99.90
4697;DHT22;2362;50.780;0.292;2023-07-22T01:48:55;14.40;99.90
4697;DHT22;2362;50.780;0.292;2023-07-22T01:51:21;14.30;99.90
4697;DHT22;2362;50.780;0.292;2023-07-22T01:53:46;14.30;99.90
4697;DHT22;2362;50.780;0.292;2023-07-22T01:56:12;14.30;99.90
4697;DHT22;2362;50.780;0.292;2023-07-22T01:58:38;14.20;99.90
4697;DHT22;2362;50.780;0.292;2023-07-22T02:01:04;14.10;99.90
4697;DHT22;2362;50.780;0.292;2023-07-22T02:03:30;14.10;99.90
4697;DHT22;2362;50.780;0.292;2023-07-22T02:06:04;14.00;99.90
4697;DHT22;2362;50.780;0.292;2023-07-22T02:08:30;14.00;99.90
4697;DHT22;2362;50.780;0.292;2023-07-22T02:11:01;14.00;99.90
4697;DHT22;2362;50.780;0.292;2023-07-22T02:13:28;14.00;99.90
4697;DHT22;2362;50.780;0.292;2023-07-22T02:15:53;13.90;99.90
4697;DHT22;2362;50.780;0.292;2023-07-22T02:18:19;13.90;99.90
4697;DHT22;2362;50.780;0.292;2023-07-22T02:20:45;13.90;99.90
4697;DHT22;2362;50.780;0.292;2023-07-22T02:23:10;13.90;99.90
4697;DHT22;2362;50.780;0.292;2023-07-22T02:25:36;13.90;99.90
4697;DHT22;2362;50.780;0.292;2023-07-22T02:28:02;13.90;99.90
4697;DHT22;2362;50.780;0.292;2023-07-22T02:30:28;13.90;99.90
4697;DHT22;2362;50.780;0.292;2023-07-22T02:32:53;13.90;99.90
4697;DHT22;2362;50.780;0.292;2023-07-22T02:35:19;13.80;99.90
4697;DHT22;2362;50.780;0.292;2023-07-22T02:37:44;13.80;99.90
4697;DHT22;2362;50.780;0.292;2023-07-22T02:40:10;13.80;99.90
4697;DHT22;2362;50.780;0.292;2023-07-22T02:42:37;13.80;99.90
4697;DHT22;2362;50.780;0.292;2023-07-22T02:45:03;13.80;99.90
4697;DHT22;2362;50.780;0.292;2023-07-22T02:47:31;13.80;99.90
4697;DHT22;2362;50.780;0.292;2023-07-22T02:49:57;13.90;99.90
4697;DHT22;2362;50.780;0.292;2023-07-22T02:52:23;13.90;99.90
4697;DHT22;2362;50.780;0.292;2023-07-22T02:55:11;13.90;99.90
4697;DHT22;2362;50.780;0.292;2023-07-22T02:57:38;13.90;99.90
4697;DHT22;2362;50.780;0.292;2023-07-22T03:00:05;13.90;99.90
4697;DHT22;2362;50.780;0.292;2023-07-22T03:02:34;14.00;99.90
4697;DHT22;2362;50.780;0.292;2023-07-22T03:05:01;14.00;99.90
4697;DHT22;2362;50.780;0.292;2023-07-22T03:07:28;14.00;99.90
4697;DHT22;2362;50.780;0.292;2023-07-22T03:09:53;14.00;99.90
4697;DHT22;2362;50.780;0.292;2023-07-22T03:12:19;14.00;99.90
4697;DHT22;2362;50.780;0.292;2023-07-22T03:14:45;14.10;99.90
4697;DHT22;2362;50.780;0.292;2023-07-22T03:17:11;14.10;99.90
4697;DHT22;2362;50.780;0.292;2023-07-22T03:19:39;14.00;99.90
4697;DHT22;2362;50.780;0.292;2023-07-22T03:22:05;14.10;99.90
4697;DHT22;2362;50.780;0.292;2023-07-22T03:24:31;14.20;99.90
4697;DHT22;2362;50.780;0.292;2023-07-22T03:26:57;14.30;99.90
4697;DHT22;2362;50.780;0.292;2023-07-22T03:29:22;14.30;99.90
4697;DHT22;2362;50.780;0.292;2023-07-22T03:31:50;14.40;99.90
4697;DHT22;2362;50.780;0.292;2023-07-22T03:34:15;14.40;99.90
4697;DHT22;2362;50.780;0.292;2023-07-22T03:36:41;14.40;99.90
4697;DHT22;2362;50.780;0.292;2023-07-22T03:39:07;14.50;99.90
4697;DHT22;2362;50.780;0.292;2023-07-22T03:41:33;14.50;99.90
4697;DHT22;2362;50.780;0.292;2023-07-22T03:43:59;14.50;99.90
4697;DHT22;2362;50.780;0.292;2023-07-22T03:46:24;14.50;99.90
4697;DHT22;2362;50.780;0.292;2023-07-22T03:48:50;14.50;99.90
4697;DHT22;2362;50.780;0.292;2023-07-22T03:51:16;14.60;99.90
4697;DHT22;2362;50.780;0.292;2023-07-22T03:53:42;14.60;99.90
4697;DHT22;2362;50.780;0.292;2023-07-22T03:56:07;14.50;99.90
4697;DHT22;2362;50.780;0.292;2023-07-22T03:58:33;14.60;99.90
4697;DHT22;2362;50.780;0.292;2023-07-22T04:00:59;14.50;99.90
4697;DHT22;2362;50.780;0.292;2023-07-22T04:03:24;14.50;99.90
4697;DHT22;2362;50.780;0.292;2023-07-22T04:05:56;14.50;99.90
4697;DHT22;2362;50.780;0.292;2023-07-22T04:08:22;14.50;99.90
4697;DHT22;2362;50.780;0.292;2023-07-22T04:10:55;14.50;99.90
4697;DHT22;2362;50.780;0.292;2023-07-22T04:13:22;14.50;99.90
4697;DHT22;2362;50.780;0.292;2023-07-22T04:15:48;14.60;99.90
4697;DHT22;2362;50.780;0.292;2023-07-22T04:18:18;14.60;99.90
4697;DHT22;2362;50.780;0.292;2023-07-22T04:20:44;14.70;99.90
4697;DHT22;2362;50.780;0.292;2023-07-22T04:23:10;14.70;99.90
4697;DHT22;2362;50.780;0.292;2023-07-22T04:25:43;14.70;99.90
4697;DHT22;2362;50.780;0.292;2023-07-22T04:28:09;14.80;99.90
4697;DHT22;2362;50.780;0.292;2023-07-22T04:30:35;14.70;99.90
4697;DHT22;2362;50.780;0.292;2023-07-22T04:33:02;14.70;99.90
4697;DHT22;2362;50.780;0.292;2023-07-22T04:35:32;14.70;99.90
4697;DHT22;2362;50.780;0.292;2023-07-22T04:37:59;14.70;99.90
4697;DHT22;2362;50.780;0.292;2023-07-22T04:40:25;14.80;99.90
4697;DHT22;2362;50.780;0.292;2023-07-22T04:42:51;14.70;99.90
4697;DHT22;2362;50.780;0.292;2023-07-22T04:45:17;14.70;99.90
4697;DHT22;2362;50.780;0.292;2023-07-22T04:47:46;14.80;99.90
4697;DHT22;2362;50.780;0.292;2023-07-22T04:50:14;14.80;99.90
4697;DHT22;2362;50.780;0.292;2023-07-22T04:52:42;14.80;99.90
4697;DHT22;2362;50.780;0.292;2023-07-22T04:55:09;14.80;99.90
4697;DHT22;2362;50.780;0.292;2023-07-22T04:57:35;14.90;99.90
4697;DHT22;2362;50.780;0.292;2023-07-22T05:00:05;14.90;99.90
4697;DHT22;2362;50.780;0.292;2023-07-22T05:02:32;15.00;99.90
4697;DHT22;2362;50.780;0.292;2023-07-22T05:04:58;15.00;99.90
4697;DHT22;2362;50.780;0.292;2023-07-22T05:07:23;15.00;99.90
4697;DHT22;2362;50.780;0.292;2023-07-22T05:09:49;15.10;99.90
4697;DHT22;2362;50.780;0.292;2023-07-22T05:12:15;15.10;99.90
4697;DHT22;2362;50.780;0.292;2023-07-22T05:14:41;15.20;99.90
4697;DHT22;2362;50.780;0.292;2023-07-22T05:17:06;15.30;99.90
4697;DHT22;2362;50.780;0.292;2023-07-22T05:19:32;15.30;99.90
4697;DHT22;2362;50.780;0.292;2023-07-22T05:21:58;15.40;99.90
4697;DHT22;2362;50.780;0.292;2023-07-22T05:24:23;15.50;99.90
4697;DHT22;2362;50.780;0.292;2023-07-22T05:26:49;15.60;99.90
4697;DHT22;2362;50.780;0.292;2023-07-22T05:29:15;15.70;99.90
4697;DHT22;2362;50.780;0.292;2023-07-22T05:31:41;15.80;99.90
4697;DHT22;2362;50.780;0.292;2023-07-22T05:34:06;15.90;99.90
4697;DHT22;2362;50.780;0.292;2023-07-22T05:36:32;16.10;99.90
4697;DHT22;2362;50.780;0.292;2023-07-22T05:38:58;16.20;99.90
4697;DHT22;2362;50.780;0.292;2023-07-22T05:41:23;16.40;99.90
4697;DHT22;2362;50.780;0.292;2023-07-22T05:43:49;16.40;99.90
4697;DHT22;2362;50.780;0.292;2023-07-22T05:46:15;16.50;99.90
4697;DHT22;2362;50.780;0.292;2023-07-22T05:48:41;16.60;99.90
4697;DHT22;2362;50.780;0.292;2023-07-22T05:51:06;16.60;99.90
4697;DHT22;2362;50.780;0.292;2023-07-22T05:53:33;16.60;99.90
4697;DHT22;2362;50.780;0.292;2023-07-22T05:55:59;16.60;99.90
4697;DHT22;2362;50.780;0.292;2023-07-22T05:58:24;16.70;99.90
4697;DHT22;2362;50.780;0.292;2023-07-22T06:00:50;16.70;99.90
4697;DHT22;2362;50.780;0.292;2023-07-22T06:03:17;16.90;99.90
4697;DHT22;2362;50.780;0.292;2023-07-22T06:05:43;17.00;99.90
4697;DHT22;2362;50.780;0.292;2023-07-22T06:08:09;17.10;99.90
4697;DHT22;2362;50.780;0.292;2023-07-22T06:10:34;17.10;99.90
4697;DHT22;2362;50.780;0.292;2023-07-22T06:13:03;17.10;99.90
4697;DHT22;2362;50.780;0.292;2023-07-22T06:15:29;17.10;99.90
4697;DHT22;2362;50.780;0.292;2023-07-22T06:17:55;17.20;99.90
4697;DHT22;2362;50.780;0.292;2023-07-22T06:20:21;17.30;99.90
4697;DHT22;2362;50.780;0.292;2023-07-22T06:22:47;17.40;99.90
4697;DHT22;2362;50.780;0.292;2023-07-22T06:25:12;17.50;99.90
4697;DHT22;2362;50.780;0.292;2023-07-22T06:27:38;18.10;99.90
4697;DHT22;2362;50.780;0.292;2023-07-22T06:30:04;18.70;99.90
4697;DHT22;2362;50.780;0.292;2023-07-22T06:32:30;18.90;99.90
4697;DHT22;2362;50.780;0.292;2023-07-22T06:34:56;18.80;99.90
4697;DHT22;2362;50.780;0.292;2023-07-22T06:37:23;18.40;99.90
4697;DHT22;2362;50.780;0.292;2023-07-22T06:39:49;18.00;99.90
4697;DHT22;2362;50.780;0.292;2023-07-22T06:42:15;17.90;99.90
4697;DHT22;2362;50.780;0.292;2023-07-22T06:44:41;17.90;99.90
4697;DHT22;2362;50.780;0.292;2023-07-22T06:47:06;18.00;99.90
4697;DHT22;2362;50.780;0.292;2023-07-22T06:49:32;17.90;99.90
4697;DHT22;2362;50.780;0.292;2023-07-22T06:51:58;17.90;99.90
4697;DHT22;2362;50.780;0.292;2023-07-22T06:54:23;17.70;99.90
4697;DHT22;2362;50.780;0.292;2023-07-22T06:56:49;17.60;99.90
4697;DHT22;2362;50.780;0.292;2023-07-22T06:59:15;17.50;99.90
4697;DHT22;2362;50.780;0.292;2023-07-22T07:01:40;17.70;99.90
4697;DHT22;2362;50.780;0.292;2023-07-22T07:04:06;17.70;99.90
4697;DHT22;2362;50.780;0.292;2023-07-22T07:06:32;17.80;99.90
4697;DHT22;2362;50.780;0.292;2023-07-22T07:09:01;17.70;99.90
4697;DHT22;2362;50.780;0.292;2023-07-22T07:11:28;17.80;99.90
4697;DHT22;2362;50.780;0.292;2023-07-22T07:13:54;17.90;99.90
4697;DHT22;2362;50.780;0.292;2023-07-22T07:16:22;18.50;99.90
4697;DHT22;2362;50.780;0.292;2023-07-22T07:18:49;18.70;99.90
4697;DHT22;2362;50.780;0.292;2023-07-22T07:21:15;18.70;99.90
4697;DHT22;2362;50.780;0.292;2023-07-22T07:23:40;18.70;99.90
4697;DHT22;2362;50.780;0.292;2023-07-22T07:26:06;19.00;99.90
4697;DHT22;2362;50.780;0.292;2023-07-22T07:28:32;19.50;99.90
4697;DHT22;2362;50.780;0.292;2023-07-22T07:30:57;19.90;99.90
4697;DHT22;2362;50.780;0.292;2023-07-22T07:33:23;19.80;99.90
4697;DHT22;2362;50.780;0.292;2023-07-22T07:35:49;20.20;99.90
4697;DHT22;2362;50.780;0.292;2023-07-22T07:38:15;20.10;99.90
4697;DHT22;2362;50.780;0.292;2023-07-22T07:40:40;19.70;99.90
4697;DHT22;2362;50.780;0.292;2023-07-22T07:43:06;19.90;99.90
4697;DHT22;2362;50.780;0.292;2023-07-22T07:45:31;20.90;99.90
4697;DHT22;2362;50.780;0.292;2023-07-22T07:47:57;21.80;99.90
4697;DHT22;2362;50.780;0.292;2023-07-22T07:50:23;21.90;99.90
4697;DHT22;2362;50.780;0.292;2023-07-22T07:52:48;21.40;99.90
4697;DHT22;2362;50.780;0.292;2023-07-22T07:55:14;21.10;99.90
4697;DHT22;2362;50.780;0.292;2023-07-22T07:57:40;21.50;99.90
4697;DHT22;2362;50.780;0.292;2023-07-22T08:00:06;22.50;99.90
4697;DHT22;2362;50.780;0.292;2023-07-22T08:02:34;23.20;99.90
4697;DHT22;2362;50.780;0.292;2023-07-22T08:05:01;23.00;99.90
4697;DHT22;2362;50.780;0.292;2023-07-22T08:07:26;22.60;99.90
4697;DHT22;2362;50.780;0.292;2023-07-22T08:09:52;21.70;99.90
4697;DHT22;2362;50.780;0.292;2023-07-22T08:12:18;21.20;99.90
4697;DHT22;2362;50.780;0.292;2023-07-22T08:14:44;20.70;99.90
4697;DHT22;2362;50.780;0.292;2023-07-22T08:17:10;20.50;99.90
4697;DHT22;2362;50.780;0.292;2023-07-22T08:19:36;21.10;99.90
4697;DHT22;2362;50.780;0.292;2023-07-22T08:22:01;21.40;99.90
4697;DHT22;2362;50.780;0.292;2023-07-22T08:24:27;21.50;99.90
4697;DHT22;2362;50.780;0.292;2023-07-22T08:26:53;21.90;99.90
4697;DHT22;2362;50.780;0.292;2023-07-22T08:29:19;22.00;99.90
4697;DHT22;2362;50.780;0.292;2023-07-22T08:31:44;22.30;99.90
4697;DHT22;2362;50.780;0.292;2023-07-22T08:34:10;22.70;99.90
4697;DHT22;2362;50.780;0.292;2023-07-22T08:36:36;22.60;99.90
4697;DHT22;2362;50.780;0.292;2023-07-22T08:39:01;22.00;99.90
4697;DHT22;2362;50.780;0.292;2023-07-22T08:41:28;22.00;99.90
4697;DHT22;2362;50.780;0.292;2023-07-22T08:43:58;22.40;99.90
4697;DHT22;2362;50.780;0.292;2023-07-22T08:46:28;22.70;99.90
4697;DHT22;2362;50.780;0.292;2023-07-22T08:48:54;23.00;99.90
4697;DHT22;2362;50.780;0.292;2023-07-22T08:51:21;23.00;99.90
4697;DHT22;2362;50.780;0.292;2023-07-22T08:53:49;22.50;99.90
4697;DHT22;2362;50.780;0.292;2023-07-22T08:56:16;22.10;99.90
4697;DHT22;2362;50.780;0.292;2023-07-22T08:58:42;21.90;99.90
4697;DHT22;2362;50.780;0.292;2023-07-22T09:01:09;21.60;99.90
4697;DHT22;2362;50.780;0.292;2023-07-22T09:03:35;21.60;99.90
4697;DHT22;2362;50.780;0.292;2023-07-22T09:06:01;21.60;99.90
4697;DHT22;2362;50.780;0.292;2023-07-22T09:08:29;22.10;99.90
4697;DHT22;2362;50.780;0.292;2023-07-22T09:10:55;22.20;99.90
4697;DHT22;2362;50.780;0.292;2023-07-22T09:13:22;22.50;99.90
4697;DHT22;2362;50.780;0.292;2023-07-22T09:15:49;22.40;99.90
4697;DHT22;2362;50.780;0.292;2023-07-22T09:18:16;21.60;99.90
4697;DHT22;2362;50.780;0.292;2023-07-22T09:20:41;21.30;99.90
4697;DHT22;2362;50.780;0.292;2023-07-22T09:23:08;20.90;99.90
4697;DHT22;2362;50.780;0.292;2023-07-22T09:25:33;20.80;99.90
4697;DHT22;2362;50.780;0.292;2023-07-22T09:28:00;20.90;99.90
4697;DHT22;2362;50.780;0.292;2023-07-22T09:30:32;21.10;99.90
4697;DHT22;2362;50.780;0.292;2023-07-22T09:33:03;21.10;99.90
4697;DHT22;2362;50.780;0.292;2023-07-22T09:35:35;21.30;99.90
4697;DHT22;2362;50.780;0.292;2023-07-22T09:38:08;21.40;99.90
4697;DHT22;2362;50.780;0.292;2023-07-22T09:40:34;21.30;99.90
4697;DHT22;2362;50.780;0.292;2023-07-22T09:43:01;21.50;99.90
4697;DHT22;2362;50.780;0.292;2023-07-22T09:45:29;21.50;99.90
4697;DHT22;2362;50.780;0.292;2023-07-22T09:47:55;21.40;99.90
4697;DHT22;2362;50.780;0.292;2023-07-22T09:50:23;21.30;99.90
4697;DHT22;2362;50.780;0.292;2023-07-22T09:52:54;21.40;99.90
4697;DHT22;2362;50.780;0.292;2023-07-22T09:55:22;21.40;99.90
4697;DHT22;2362;50.780;0.292;2023-07-22T09:57:59;21.50;99.90
4697;DHT22;2362;50.780;0.292;2023-07-22T10:00:32;21.50;99.90
4697;DHT22;2362;50.780;0.292;2023-07-22T10:03:00;21.50;99.90
4697;DHT22;2362;50.780;0.292;2023-07-22T10:05:27;21.40;99.90
4697;DHT22;2362;50.780;0.292;2023-07-22T10:07:58;21.30;99.90
4697;DHT22;2362;50.780;0.292;2023-07-22T10:10:33;21.10;99.90
4697;DHT22;2362;50.780;0.292;2023-07-22T10:12:59;21.00;99.90
4697;DHT22;2362;50.780;0.292;2023-07-22T10:15:27;20.80;99.90
4697;DHT22;2362;50.780;0.292;2023-07-22T10:17:55;20.80;99.90
4697;DHT22;2362;50.780;0.292;2023-07-22T10:20:22;20.90;99.90
4697;DHT22;2362;50.780;0.292;2023-07-22T10:22:48;21.20;99.90
4697;DHT22;2362;50.780;0.292;2023-07-22T10:25:17;21.00;99.90
4697;DHT22;2362;50.780;0.292;2023-07-22T10:27:43;21.30;99.90
4697;DHT22;2362;50.780;0.292;2023-07-22T10:30:10;21.50;99.90
4697;DHT22;2362;50.780;0.292;2023-07-22T10:32:44;21.20;99.90
4697;DHT22;2362;50.780;0.292;2023-07-22T10:38:09;21.20;99.90
4697;DHT22;2362;50.780;0.292;2023-07-22T10:43:12;21.40;99.90
4697;DHT22;2362;50.780;0.292;2023-07-22T10:45:42;21.30;99.90
4697;DHT22;2362;50.780;0.292;2023-07-22T10:48:12;21.40;99.90
4697;DHT22;2362;50.780;0.292;2023-07-22T10:50:45;21.40;99.90
4697;DHT22;2362;50.780;0.292;2023-07-22T11:11:53;21.10;99.90
4697;DHT22;2362;50.780;0.292;2023-07-22T11:14:24;21.10;99.90
4697;DHT22;2362;50.780;0.292;2023-07-22T11:16:50;20.80;99.90
4697;DHT22;2362;50.780;0.292;2023-07-22T11:19:17;21.10;99.90
4697;DHT22;2362;50.780;0.292;2023-07-22T11:21:45;21.20;99.90
4697;DHT22;2362;50.780;0.292;2023-07-22T11:24:11;20.90;99.90
4697;DHT22;2362;50.780;0.292;2023-07-22T11:26:38;21.10;99.90
4697;DHT22;2362;50.780;0.292;2023-07-22T11:29:05;21.30;99.90
4697;DHT22;2362;50.780;0.292;2023-07-22T11:31:35;21.20;99.90
4697;DHT22;2362;50.780;0.292;2023-07-22T11:34:08;21.20;99.90
4697;DHT22;2362;50.780;0.292;2023-07-22T11:36:34;21.30;99.90
4697;DHT22;2362;50.780;0.292;2023-07-22T11:39:05;21.10;99.90
4697;DHT22;2362;50.780;0.292;2023-07-22T11:41:32;20.80;99.90
4697;DHT22;2362;50.780;0.292;2023-07-22T11:43:59;20.80;99.90
4697;DHT22;2362;50.780;0.292;2023-07-22T11:46:26;20.80;99.90
4697;DHT22;2362;50.780;0.292;2023-07-22T11:48:53;21.00;99.90
4697;DHT22;2362;50.780;0.292;2023-07-22T11:51:20;21.10;99.90
4697;DHT22;2362;50.780;0.292;2023-07-22T11:53:47;21.10;99.90
4697;DHT22;2362;50.780;0.292;2023-07-22T11:56:21;20.90;99.90
4697;DHT22;2362;50.780;0.292;2023-07-22T11:58:55;20.90;99.90
4697;DHT22;2362;50.780;0.292;2023-07-22T12:01:21;20.80;99.90
4697;DHT22;2362;50.780;0.292;2023-07-22T12:03:47;20.80;99.90
4697;DHT22;2362;50.780;0.292;2023-07-22T12:06:13;20.70;99.90
4697;DHT22;2362;50.780;0.292;2023-07-22T12:08:44;20.70;99.90
4697;DHT22;2362;50.780;0.292;2023-07-22T12:11:23;20.60;99.90
4697;DHT22;2362;50.780;0.292;2023-07-22T12:14:09;20.60;99.90
4697;DHT22;2362;50.780;0.292;2023-07-22T12:16:36;20.70;99.90
4697;DHT22;2362;50.780;0.292;2023-07-22T12:19:02;20.50;99.90
4697;DHT22;2362;50.780;0.292;2023-07-22T12:21:28;20.20;99.90
4697;DHT22;2362;50.780;0.292;2023-07-22T12:23:54;20.00;99.90
4697;DHT22;2362;50.780;0.292;2023-07-22T12:26:20;19.80;99.90
4697;DHT22;2362;50.780;0.292;2023-07-22T12:28:46;19.60;99.90
4697;DHT22;2362;50.780;0.292;2023-07-22T12:31:11;19.40;99.90
4697;DHT22;2362;50.780;0.292;2023-07-22T12:33:37;19.40;99.90
4697;DHT22;2362;50.780;0.292;2023-07-22T12:36:03;19.40;99.90
4697;DHT22;2362;50.780;0.292;2023-07-22T12:38:29;19.40;99.90
4697;DHT22;2362;50.780;0.292;2023-07-22T12:40:54;19.30;99.90
4697;DHT22;2362;50.780;0.292;2023-07-22T12:43:20;19.20;99.90
4697;DHT22;2362;50.780;0.292;2023-07-22T12:45:46;18.90;99.90
4697;DHT22;2362;50.780;0.292;2023-07-22T12:48:12;18.80;99.90
4697;DHT22;2362;50.780;0.292;2023-07-22T12:50:37;18.70;99.90
4697;DHT22;2362;50.780;0.292;2023-07-22T12:53:03;18.60;99.90
4697;DHT22;2362;50.780;0.292;2023-07-22T12:55:29;18.50;99.90
4697;DHT22;2362;50.780;0.292;2023-07-22T12:57:55;18.40;99.90
4697;DHT22;2362;50.780;0.292;2023-07-22T13:00:21;18.40;99.90
4697;DHT22;2362;50.780;0.292;2023-07-22T13:02:47;18.50;99.90
4697;DHT22;2362;50.780;0.292;2023-07-22T13:05:12;18.60;99.90
4697;DHT22;2362;50.780;0.292;2023-07-22T13:07:38;18.60;99.90
4697;DHT22;2362;50.780;0.292;2023-07-22T13:10:04;18.60;99.90
4697;DHT22;2362;50.780;0.292;2023-07-22T13:12:37;18.70;99.90
4697;DHT22;2362;50.780;0.292;2023-07-22T13:15:04;18.60;99.90
4697;DHT22;2362;50.780;0.292;2023-07-22T13:17:29;18.60;99.90
4697;DHT22;2362;50.780;0.292;2023-07-22T13:19:55;18.50;99.90
4697;DHT22;2362;50.780;0.292;2023-07-22T13:22:21;18.60;99.90
4697;DHT22;2362;50.780;0.292;2023-07-22T13:24:46;18.70;99.90
4697;DHT22;2362;50.780;0.292;2023-07-22T13:27:12;18.80;99.90
4697;DHT22;2362;50.780;0.292;2023-07-22T13:29:38;19.00;99.90
4697;DHT22;2362;50.780;0.292;2023-07-22T13:32:04;19.20;99.90
4697;DHT22;2362;50.780;0.292;2023-07-22T13:34:30;19.70;99.90
4697;DHT22;2362;50.780;0.292;2023-07-22T13:36:56;20.10;99.90
4697;DHT22;2362;50.780;0.292;2023-07-22T13:39:21;20.50;99.90
4697;DHT22;2362;50.780;0.292;2023-07-22T13:41:47;20.80;99.90
4697;DHT22;2362;50.780;0.292;2023-07-22T13:44:13;21.10;99.90
4697;DHT22;2362;50.780;0.292;2023-07-22T13:46:39;21.10;99.90
4697;DHT22;2362;50.780;0.292;2023-07-22T13:49:04;21.00;99.90
4697;DHT22;2362;50.780;0.292;2023-07-22T13:51:30;21.00;99.90
4697;DHT22;2362;50.780;0.292;2023-07-22T13:53:55;21.10;99.90
4697;DHT22;2362;50.780;0.292;2023-07-22T13:56:23;21.20;99.90
4697;DHT22;2362;50.780;0.292;2023-07-22T13:58:49;21.10;99.90
4697;DHT22;2362;50.780;0.292;2023-07-22T14:01:15;21.00;99.90
4697;DHT22;2362;50.780;0.292;2023-07-22T14:03:41;20.90;99.90
4697;DHT22;2362;50.780;0.292;2023-07-22T14:06:06;21.00;99.90
4697;DHT22;2362;50.780;0.292;2023-07-22T14:08:33;21.20;99.90
4697;DHT22;2362;50.780;0.292;2023-07-22T14:10:59;21.30;99.90
4697;DHT22;2362;50.780;0.292;2023-07-22T14:13:24;21.20;99.90
4697;DHT22;2362;50.780;0.292;2023-07-22T14:15:50;21.30;99.90
4697;DHT22;2362;50.780;0.292;2023-07-22T14:18:16;21.20;99.90
4697;DHT22;2362;50.780;0.292;2023-07-22T14:20:43;21.20;99.90
4697;DHT22;2362;50.780;0.292;2023-07-22T14:23:10;21.20;99.90
4697;DHT22;2362;50.780;0.292;2023-07-22T14:25:35;21.00;99.90
4697;DHT22;2362;50.780;0.292;2023-07-22T14:28:01;21.10;99.90
4697;DHT22;2362;50.780;0.292;2023-07-22T14:30:26;21.00;99.90
4697;DHT22;2362;50.780;0.292;2023-07-22T14:32:52;21.00;99.90
4697;DHT22;2362;50.780;0.292;2023-07-22T14:35:18;21.10;99.90
4697;DHT22;2362;50.780;0.292;2023-07-22T14:37:43;21.20;99.90
4697;DHT22;2362;50.780;0.292;2023-07-22T14:40:10;21.00;99.90
4697;DHT22;2362;50.780;0.292;2023-07-22T14:42:36;21.00;99.90
4697;DHT22;2362;50.780;0.292;2023-07-22T14:45:02;20.90;99.90
4697;DHT22;2362;50.780;0.292;2023-07-22T14:47:28;20.50;99.90
4697;DHT22;2362;50.780;0.292;2023-07-22T14:49:54;20.40;99.90
4697;DHT22;2362;50.780;0.292;2023-07-22T14:52:19;20.40;99.90
4697;DHT22;2362;50.780;0.292;2023-07-22T14:54:45;20.40;99.90
4697;DHT22;2362;50.780;0.292;2023-07-22T14:57:11;20.40;99.90
4697;DHT22;2362;50.780;0.292;2023-07-22T14:59:37;20.50;99.90
4697;DHT22;2362;50.780;0.292;2023-07-22T15:02:03;20.40;99.90
4697;DHT22;2362;50.780;0.292;2023-07-22T15:04:28;20.40;99.90
4697;DHT22;2362;50.780;0.292;2023-07-22T15:06:54;20.40;99.90
4697;DHT22;2362;50.780;0.292;2023-07-22T15:09:19;20.10;99.90
4697;DHT22;2362;50.780;0.292;2023-07-22T15:11:46;19.90;99.90
4697;DHT22;2362;50.780;0.292;2023-07-22T15:14:11;19.70;99.90
4697;DHT22;2362;50.780;0.292;2023-07-22T15:16:37;19.60;99.90
4697;DHT22;2362;50.780;0.292;2023-07-22T15:19:03;19.40;99.90
4697;DHT22;2362;50.780;0.292;2023-07-22T15:21:28;19.30;99.90
4697;DHT22;2362;50.780;0.292;2023-07-22T15:23:54;19.20;99.90
4697;DHT22;2362;50.780;0.292;2023-07-22T15:26:20;19.10;99.90
4697;DHT22;2362;50.780;0.292;2023-07-22T15:28:46;19.10;99.90
4697;DHT22;2362;50.780;0.292;2023-07-22T15:31:12;19.00;99.90
4697;DHT22;2362;50.780;0.292;2023-07-22T15:33:39;18.70;99.90
4697;DHT22;2362;50.780;0.292;2023-07-22T15:36:04;18.40;99.90
4697;DHT22;2362;50.780;0.292;2023-07-22T15:38:30;18.20;99.90
4697;DHT22;2362;50.780;0.292;2023-07-22T15:40:57;18.00;99.90
4697;DHT22;2362;50.780;0.292;2023-07-22T15:43:22;17.90;99.90
4697;DHT22;2362;50.780;0.292;2023-07-22T15:45:48;17.80;99.90
4697;DHT22;2362;50.780;0.292;2023-07-22T15:48:14;17.60;99.90
4697;DHT22;2362;50.780;0.292;2023-07-22T15:50:39;17.60;99.90
4697;DHT22;2362;50.780;0.292;2023-07-22T15:53:05;17.50;99.90
4697;DHT22;2362;50.780;0.292;2023-07-22T15:55:31;17.50;99.90
4697;DHT22;2362;50.780;0.292;2023-07-22T15:57:57;17.50;99.90
4697;DHT22;2362;50.780;0.292;2023-07-22T16:00:22;17.50;99.90
4697;DHT22;2362;50.780;0.292;2023-07-22T16:02:48;17.50;99.90
4697;DHT22;2362;50.780;0.292;2023-07-22T16:05:14;17.40;99.90
4697;DHT22;2362;50.780;0.292;2023-07-22T16:07:39;17.40;99.90
4697;DHT22;2362;50.780;0.292;2023-07-22T16:10:06;17.40;99.90
4697;DHT22;2362;50.780;0.292;2023-07-22T16:12:32;17.40;99.90
4697;DHT22;2362;50.780;0.292;2023-07-22T16:14:57;17.40;99.90
4697;DHT22;2362;50.780;0.292;2023-07-22T16:17:24;17.30;99.90
4697;DHT22;2362;50.780;0.292;2023-07-22T16:19:49;17.40;99.90
4697;DHT22;2362;50.780;0.292;2023-07-22T16:22:15;17.30;99.90